»·PEaware :: N149CD KSBP-KBUR

N149CD :: KSBP-KBUR

FLIGHT INFORMATION

Flight Status: Arrived
Operator: Privately registered:
United States
More flights under this callsign
Pilot: Nathan E. (30132)
Aircraft: CIRRUS VISIONJET
(SF50)
More flights by this aircraft type
Origin: KSBP San Luis Co Regl
United States
Destination: KBUR Bob Hope-Burbank
United States
More flights between these airports :: More routes between these airports
Route: RZS V386 +FIM FERN7+
File this flight plan on PilotEdge
Remarks: TEC route SBAP38
Altitude:
(Current/Filed)
11,000ft
Speed:
(Current/Filed)
300kts
Departed: 19-Dec-20 07:27 PM
Arrived: 19-Dec-20 08:09 PM
Distance/Time
Traveled:
129nm/0:42
Distance/Time
To Go:
Arrived

Flight Plot

Page will automatically refresh every two minutes.

Flight plan parsing failed; only flown route is shown


Map Options




Map Legend


Flown Route
Filed Route
Departure Airport
Arrival Airport
Navaid (VOR, NDB)
Fix

Horizontal Profiles

Position Reports

Time Latitude Longitude Heading Altitude Ground
Speed
19-Dec-20 19:07 35.238243 -120.639986 308 216ft 0kts
19-Dec-20 19:08 35.238243 -120.639986 308 216ft 0kts
19-Dec-20 19:09 35.238243 -120.639986 308 216ft 0kts
19-Dec-20 19:10 35.238243 -120.639986 308 216ft 0kts
19-Dec-20 19:11 35.238243 -120.639986 308 216ft 0kts
19-Dec-20 19:12 35.238243 -120.639986 308 216ft 0kts
19-Dec-20 19:13 35.238243 -120.639986 308 216ft 0kts
19-Dec-20 19:14 35.238243 -120.639986 308 216ft 0kts
19-Dec-20 19:15 35.238243 -120.639986 308 216ft 0kts
19-Dec-20 19:16 35.238243 -120.639986 308 216ft 0kts
19-Dec-20 19:17 35.238243 -120.639986 308 216ft 0kts
19-Dec-20 19:18 35.238243 -120.639986 308 216ft 0kts
19-Dec-20 19:19 35.238243 -120.639986 308 216ft 0kts
19-Dec-20 19:20 35.238243 -120.639986 308 216ft 0kts
19-Dec-20 19:21 35.237965 -120.640029 145 216ft 9kts
19-Dec-20 19:22 35.235474 -120.635839 125 216ft 15kts
19-Dec-20 19:23 35.233227 -120.632018 186 216ft 5kts
19-Dec-20 19:24 35.233155 -120.632095 240 216ft 0kts
19-Dec-20 19:25 35.232807 -120.633060 305 216ft 0kts
19-Dec-20 19:26 35.248097 -120.660459 303 1453ft 156kts
19-Dec-20 19:27 35.270713 -120.705646 304 4915ft 172kts
19-Dec-20 19:28 35.302094 -120.766924 304 4961ft 183kts
19-Dec-20 19:29 35.282854 -120.797753 138 7435ft 189kts
19-Dec-20 19:31 35.245015 -120.745369 129 7976ft 231kts
19-Dec-20 19:32 35.201593 -120.686943 130 7973ft 232kts
19-Dec-20 19:33 35.157947 -120.628443 130 7974ft 232kts
19-Dec-20 19:34 35.114627 -120.570480 130 7976ft 231kts
19-Dec-20 19:35 35.071431 -120.512780 130 7979ft 229kts
19-Dec-20 19:36 35.028717 -120.455826 130 7982ft 227kts
19-Dec-20 19:37 34.987066 -120.400471 129 9845ft 201kts
19-Dec-20 19:38 34.945307 -120.344794 130 11038ft 273kts
19-Dec-20 19:39 34.888735 -120.269819 130 11028ft 317kts
19-Dec-20 19:40 34.827993 -120.189433 130 11026ft 326kts
19-Dec-20 19:41 34.766415 -120.108126 130 11026ft 327kts
19-Dec-20 19:42 34.704633 -120.026741 130 11026ft 327kts
19-Dec-20 19:43 34.643000 -119.945690 130 11020ft 328kts
19-Dec-20 19:44 34.580887 -119.864250 130 11008ft 329kts
19-Dec-20 19:45 34.518825 -119.782863 127 11001ft 329kts
19-Dec-20 19:46 34.494347 -119.679146 100 10999ft 322kts
19-Dec-20 19:47 34.476089 -119.572837 99 10999ft 322kts
19-Dec-20 19:48 34.457998 -119.466547 98 10999ft 322kts
19-Dec-20 19:48 34.442880 -119.377995 99 10999ft 322kts
19-Dec-20 19:50 34.421764 -119.255322 99 11001ft 280kts
19-Dec-20 19:51 34.408254 -119.177012 98 11000ft 229kts
19-Dec-20 19:51 34.397347 -119.114016 98 11000ft 230kts
19-Dec-20 19:52 34.384122 -119.038003 98 11000ft 230kts
19-Dec-20 19:53 34.370913 -118.962306 99 11000ft 230kts
19-Dec-20 19:54 34.357640 -118.886656 100 10999ft 230kts
19-Dec-20 19:55 34.316749 -118.838454 152 10783ft 202kts
19-Dec-20 19:56 34.268096 -118.812993 154 9523ft 188kts
19-Dec-20 19:57 34.221126 -118.788283 155 8025ft 182kts
19-Dec-20 19:58 34.203380 -118.747804 91 6564ft 130kts
19-Dec-20 19:59 34.202319 -118.705458 89 5063ft 125kts
19-Dec-20 20:00 34.201750 -118.663898 89 3566ft 124kts
19-Dec-20 20:01 34.201221 -118.622321 89 3017ft 155kts
19-Dec-20 20:02 34.200254 -118.567258 89 2992ft 168kts
19-Dec-20 20:03 34.199630 -118.511591 89 2993ft 167kts
19-Dec-20 20:05 34.199144 -118.468851 88 2381ft 97kts
19-Dec-20 20:05 34.198800 -118.441894 89 1952ft 98kts
19-Dec-20 20:06 34.198424 -118.409471 89 1425ft 94kts
19-Dec-20 20:07 34.198094 -118.378788 89 924ft 88kts
19-Dec-20 20:08 34.198348 -118.360253 359 717ft 3kts
19-Dec-20 20:09 34.199341 -118.360231 3 721ft 8kts
19-Dec-20 20:10 34.199669 -118.359624 76 721ft 0kts

Navigation Log

Ident Type
Flight plan parsing failed, navigation log unavailable